Time;durP1;ratioP1;P1;durP2;ratioP2;P2;SDS_P1;SDS_P2;PMS_P1;PMS_P2;Temp;Humidity;BMP_temperature;BMP_pressure;BME280_temperature;BME280_humidity;BME280_pressure;Samples;Min_cycle;Max_cycle;Signal;HPM_P1;HPM_P2
2021/06/19 00:00:36;;;;;;;4.00;1.93;;;22.90;99.90;;;;;;4981023;28;20182;-84
2021/06/19 00:03:03;;;;;;;4.70;2.30;;;22.90;99.90;;;;;;5011386;28;20200;-84
2021/06/19 00:05:29;;;;;;;3.97;2.20;;;22.90;99.90;;;;;;4983398;28;20193;-84
2021/06/19 00:07:56;;;;;;;5.80;2.07;;;22.80;99.90;;;;;;4979935;28;20251;-83
2021/06/19 00:10:22;;;;;;;6.13;2.30;;;22.70;99.90;;;;;;4993733;28;20186;-85
2021/06/19 00:12:50;;;;;;;5.13;2.30;;;22.70;99.90;;;;;;4978311;28;20552;-85
2021/06/19 00:15:18;;;;;;;5.23;2.30;;;22.60;99.90;;;;;;4996107;28;20185;-85
2021/06/19 00:17:44;;;;;;;4.83;2.20;;;22.60;99.90;;;;;;4998273;28;20174;-84
2021/06/19 00:20:36;;;;;;;3.63;1.80;;;22.60;99.90;;;;;;4997663;28;20182;-84
2021/06/19 00:23:02;;;;;;;6.10;2.37;;;22.70;99.90;;;;;;4977998;28;20260;-85
2021/06/19 00:25:29;;;;;;;4.83;2.10;;;22.60;99.90;;;;;;4997069;28;20288;-84
2021/06/19 00:27:56;;;;;;;3.33;2.03;;;22.60;99.90;;;;;;4982970;28;20190;-84
2021/06/19 00:30:23;;;;;;;3.60;2.10;;;22.60;99.90;;;;;;4979922;28;20301;-84
2021/06/19 00:32:51;;;;;;;4.43;2.13;;;22.50;99.90;;;;;;4984012;28;20664;-84
2021/06/19 00:35:17;;;;;;;5.73;2.40;;;22.50;99.90;;;;;;4979622;28;20535;-86
2021/06/19 00:37:44;;;;;;;3.33;2.00;;;22.40;99.90;;;;;;4996798;28;20178;-84
2021/06/19 00:40:12;;;;;;;5.07;1.97;;;22.40;99.90;;;;;;4995391;28;20186;-85
2021/06/19 00:42:38;;;;;;;3.90;1.90;;;22.40;99.90;;;;;;4999550;28;20240;-85
2021/06/19 00:45:07;;;;;;;3.73;2.30;;;22.40;99.90;;;;;;4995012;28;20189;-84
2021/06/19 00:47:38;;;;;;;4.23;1.83;;;22.40;99.90;;;;;;4997228;28;20628;-85
2021/06/19 00:50:05;;;;;;;4.40;2.00;;;22.30;99.90;;;;;;4998374;28;20225;-86
2021/06/19 00:52:31;;;;;;;6.47;2.27;;;22.30;99.90;;;;;;4994506;28;20264;-86
2021/06/19 00:54:56;;;;;;;2.20;1.60;;;22.30;99.90;;;;;;4978982;28;20659;-83
2021/06/19 00:57:22;;;;;;;7.90;2.50;;;22.20;99.90;;;;;;4995681;28;20224;-85
2021/06/19 00:59:48;;;;;;;3.50;2.10;;;22.20;99.90;;;;;;4977749;28;20193;-85
2021/06/19 01:02:14;;;;;;;4.30;2.50;;;22.00;99.90;;;;;;4987879;28;20189;-83
2021/06/19 01:04:40;;;;;;;4.67;2.40;;;22.00;99.90;;;;;;4983180;28;20619;-85
2021/06/19 01:07:06;;;;;;;8.23;2.80;;;21.90;99.90;;;;;;4995486;28;20192;-84
2021/06/19 01:09:33;;;;;;;6.33;3.20;;;21.80;99.90;;;;;;5006245;28;20221;-85
2021/06/19 01:11:58;;;;;;;5.60;3.00;;;21.70;99.90;;;;;;4992605;28;20190;-84
2021/06/19 01:14:25;;;;;;;5.93;3.30;;;21.60;99.90;;;;;;4980193;28;20187;-85
2021/06/19 01:16:51;;;;;;;5.77;4.00;;;21.50;99.90;;;;;;4979804;28;20192;-86
2021/06/19 01:19:17;;;;;;;6.13;3.90;;;21.60;99.90;;;;;;4984084;28;20183;-84
2021/06/19 01:21:43;;;;;;;7.47;3.93;;;21.60;99.90;;;;;;4981547;28;20243;-84
2021/06/19 01:24:14;;;;;;;9.77;4.00;;;21.60;99.90;;;;;;4982048;28;20203;-85
2021/06/19 01:26:40;;;;;;;5.83;3.70;;;21.50;99.90;;;;;;4978859;28;20212;-84
2021/06/19 01:29:06;;;;;;;7.53;4.07;;;21.50;99.90;;;;;;4979621;28;20263;-85
2021/06/19 01:31:32;;;;;;;8.20;4.60;;;21.40;99.90;;;;;;4979605;28;20201;-85
2021/06/19 01:33:59;;;;;;;9.00;4.33;;;21.50;99.90;;;;;;4981181;28;20581;-85
2021/06/19 01:36:25;;;;;;;6.17;3.77;;;21.50;99.90;;;;;;4979194;28;20217;-85
2021/06/19 01:38:54;;;;;;;8.03;4.50;;;21.60;99.90;;;;;;4996348;28;20225;-84
2021/06/19 01:41:24;;;;;;;9.67;4.23;;;21.60;99.90;;;;;;5002946;28;20208;-84
2021/06/19 01:44:03;;;;;;;8.20;4.43;;;21.70;99.90;;;;;;4998476;28;20201;-86
2021/06/19 01:46:30;;;;;;;8.63;4.27;;;21.80;99.90;;;;;;5014844;28;20216;-85
2021/06/19 01:48:57;;;;;;;7.63;4.10;;;21.80;99.90;;;;;;4992655;28;20240;-85
2021/06/19 01:51:23;;;;;;;9.63;4.97;;;21.80;99.90;;;;;;4996880;28;20185;-86
2021/06/19 01:53:49;;;;;;;10.03;4.73;;;21.80;99.90;;;;;;4980955;28;20196;-85
2021/06/19 01:56:15;;;;;;;7.17;4.30;;;21.80;99.90;;;;;;4993033;28;20186;-86
2021/06/19 01:58:42;;;;;;;9.10;4.43;;;21.70;99.90;;;;;;5014540;28;20193;-85
2021/06/19 02:01:10;;;;;;;8.07;4.53;;;21.70;99.90;;;;;;4996003;28;20198;-85
2021/06/19 02:03:36;;;;;;;7.30;4.50;;;21.60;99.90;;;;;;4979849;28;20190;-85
2021/06/19 02:06:05;;;;;;;7.50;4.90;;;21.50;99.90;;;;;;4980637;28;20614;-84
2021/06/19 02:08:32;;;;;;;9.50;5.50;;;21.50;99.90;;;;;;4999473;28;20222;-85
2021/06/19 02:10:59;;;;;;;9.87;5.40;;;21.50;99.90;;;;;;4995135;28;20184;-85
2021/06/19 02:13:26;;;;;;;8.23;5.63;;;21.40;99.90;;;;;;5013250;28;20174;-86
2021/06/19 02:15:53;;;;;;;9.60;5.40;;;21.40;99.90;;;;;;4996486;28;20189;-85
2021/06/19 02:18:19;;;;;;;8.00;5.00;;;21.40;99.90;;;;;;4992586;28;20188;-84
2021/06/19 02:20:48;;;;;;;7.93;5.20;;;21.40;99.90;;;;;;4979166;28;20267;-84
2021/06/19 02:23:14;;;;;;;7.73;4.83;;;21.40;99.90;;;;;;4988262;28;20208;-85
2021/06/19 02:25:40;;;;;;;8.73;4.90;;;21.20;99.90;;;;;;4998981;28;20214;-88
2021/06/19 02:28:08;;;;;;;8.47;4.60;;;21.20;99.90;;;;;;5001601;28;20195;-84
2021/06/19 02:30:37;;;;;;;8.70;4.73;;;21.20;99.90;;;;;;5000027;28;20169;-85
2021/06/19 02:33:04;;;;;;;9.20;4.67;;;21.10;99.90;;;;;;4981927;28;20191;-84
2021/06/19 02:35:33;;;;;;;7.77;4.20;;;21.10;99.90;;;;;;4999836;28;20506;-84
2021/06/19 02:37:59;;;;;;;7.13;4.80;;;21.10;99.90;;;;;;5000860;28;20260;-85
2021/06/19 02:40:26;;;;;;;9.20;5.17;;;21.10;99.90;;;;;;4983985;28;20185;-86
2021/06/19 02:42:53;;;;;;;9.57;5.30;;;21.10;99.90;;;;;;4999609;28;20186;-84
2021/06/19 02:45:19;;;;;;;7.60;5.27;;;21.20;99.90;;;;;;4983397;28;20184;-85
2021/06/19 02:47:51;;;;;;;9.70;5.60;;;21.20;99.90;;;;;;4979313;28;20185;-85
2021/06/19 02:50:19;;;;;;;8.20;5.33;;;21.30;99.90;;;;;;4987338;28;20229;-85
2021/06/19 02:52:45;;;;;;;8.77;5.40;;;21.30;99.90;;;;;;4979889;28;20174;-85
2021/06/19 02:55:16;;;;;;;12.77;6.10;;;21.30;99.90;;;;;;4982856;28;20194;-84
2021/06/19 02:57:42;;;;;;;11.90;5.53;;;21.30;99.90;;;;;;4999390;28;20291;-85
2021/06/19 03:00:10;;;;;;;8.30;5.80;;;21.40;99.90;;;;;;4987269;28;20181;-84
2021/06/19 03:02:37;;;;;;;10.67;5.93;;;21.30;99.90;;;;;;5020304;28;20185;-84
2021/06/19 03:05:05;;;;;;;11.40;7.30;;;21.30;99.90;;;;;;4997111;28;20193;-85
2021/06/19 03:07:30;;;;;;;9.57;6.57;;;21.30;99.90;;;;;;4984488;28;20195;-85
2021/06/19 03:09:56;;;;;;;10.43;6.50;;;21.30;99.90;;;;;;4984389;28;20224;-84
2021/06/19 03:12:22;;;;;;;10.60;6.97;;;21.40;99.90;;;;;;4985803;28;20281;-86
2021/06/19 03:14:49;;;;;;;9.43;6.27;;;21.40;99.90;;;;;;5013427;28;20213;-84
2021/06/19 03:17:15;;;;;;;12.20;7.10;;;21.40;99.90;;;;;;4989178;28;20182;-84
2021/06/19 03:19:41;;;;;;;11.83;7.37;;;21.30;99.90;;;;;;5005099;28;20250;-85
2021/06/19 03:22:07;;;;;;;11.57;7.00;;;21.20;99.90;;;;;;4985150;28;20553;-84
2021/06/19 03:24:40;;;;;;;11.87;7.00;;;21.20;99.90;;;;;;5007099;28;20224;-83
2021/06/19 03:27:11;;;;;;;11.13;7.20;;;21.20;99.90;;;;;;5005609;28;20221;-84
2021/06/19 03:29:37;;;;;;;10.90;7.57;;;21.20;99.90;;;;;;5006823;28;20285;-86
2021/06/19 03:32:04;;;;;;;11.70;8.03;;;21.20;99.90;;;;;;4998325;28;20264;-87
2021/06/19 03:34:30;;;;;;;13.20;8.17;;;21.30;99.90;;;;;;5010350;28;20211;-86
2021/06/19 03:36:59;;;;;;;13.50;7.70;;;21.20;99.90;;;;;;5009714;28;20250;-85
2021/06/19 03:39:30;;;;;;;11.00;6.83;;;21.10;99.90;;;;;;4988813;28;20186;-85
2021/06/19 03:41:55;;;;;;;11.47;7.20;;;21.10;99.90;;;;;;4993117;28;20196;-86
2021/06/19 03:44:25;;;;;;;16.03;7.63;;;21.10;99.90;;;;;;5008463;28;20332;-86
2021/06/19 03:46:51;;;;;;;12.50;7.97;;;21.10;99.90;;;;;;5010816;28;20274;-87
2021/06/19 03:49:18;;;;;;;14.60;8.80;;;21.00;99.90;;;;;;5029197;28;20209;-86
2021/06/19 03:51:45;;;;;;;13.77;9.37;;;20.70;99.90;;;;;;5011114;28;20212;-87
2021/06/19 03:54:10;;;;;;;14.63;9.67;;;20.30;99.90;;;;;;4998170;28;20190;-86
2021/06/19 03:56:36;;;;;;;16.00;9.97;;;20.00;99.90;;;;;;4994092;28;20237;-88
2021/06/19 03:59:02;;;;;;;15.27;10.47;;;20.10;99.90;;;;;;4995782;28;20281;-86
2021/06/19 04:01:28;;;;;;;16.37;10.87;;;20.10;99.90;;;;;;4992470;28;20187;-85
2021/06/19 04:03:54;;;;;;;17.63;11.83;;;20.30;99.90;;;;;;4992559;28;20227;-87
2021/06/19 04:06:19;;;;;;;15.90;11.20;;;20.40;99.90;;;;;;5006454;28;20195;-86
2021/06/19 04:08:45;;;;;;;16.87;11.53;;;20.50;99.90;;;;;;5011916;28;20204;-85
2021/06/19 04:11:14;;;;;;;16.87;11.23;;;20.50;99.90;;;;;;5010430;28;20253;-85
2021/06/19 04:13:41;;;;;;;17.93;10.57;;;20.60;99.90;;;;;;4993387;28;20187;-85
2021/06/19 04:16:09;;;;;;;16.93;11.13;;;20.70;99.90;;;;;;5006923;28;20191;-85
2021/06/19 04:18:35;;;;;;;17.17;10.70;;;20.60;99.90;;;;;;4988402;28;20194;-84
2021/06/19 04:21:01;;;;;;;15.63;10.00;;;20.50;99.90;;;;;;5017903;28;20197;-82
2021/06/19 04:23:26;;;;;;;14.67;10.10;;;20.50;99.90;;;;;;5004630;28;20184;-84
2021/06/19 04:25:52;;;;;;;15.63;10.60;;;20.50;99.90;;;;;;5004854;28;20197;-84
2021/06/19 04:28:18;;;;;;;12.87;9.40;;;20.50;99.90;;;;;;5005612;28;20175;-85
2021/06/19 04:30:44;;;;;;;14.37;9.07;;;20.50;99.90;;;;;;5003979;28;20172;-84
2021/06/19 04:33:09;;;;;;;16.70;9.83;;;20.60;99.90;;;;;;5021303;28;20191;-84
2021/06/19 04:35:35;;;;;;;14.57;9.03;;;20.70;99.90;;;;;;5004484;28;20198;-85
2021/06/19 04:38:01;;;;;;;12.60;9.00;;;20.70;99.90;;;;;;5002939;28;20172;-83
2021/06/19 04:42:58;;;;;;;11.97;8.50;;;20.90;99.90;;;;;;5019851;28;20176;-83
2021/06/19 04:45:25;;;;;;;11.63;7.90;;;21.00;99.90;;;;;;5004004;28;20203;-82
2021/06/19 04:47:51;;;;;;;11.93;8.50;;;21.10;99.90;;;;;;5019307;28;20200;-83
2021/06/19 04:50:17;;;;;;;11.97;8.40;;;21.20;99.90;;;;;;5020105;28;20291;-84
2021/06/19 04:52:45;;;;;;;14.50;7.73;;;21.20;99.90;;;;;;5020247;28;20186;-85
2021/06/19 04:55:15;;;;;;;11.87;7.77;;;21.30;99.90;;;;;;5000967;28;20164;-85
2021/06/19 04:57:42;;;;;;;11.83;7.13;;;21.40;99.90;;;;;;5020935;28;20197;-84
2021/06/19 05:00:11;;;;;;;12.03;7.13;;;21.50;99.90;;;;;;5019671;28;20268;-84
2021/06/19 05:02:36;;;;;;;10.77;7.33;;;21.50;99.90;;;;;;5002222;28;20185;-86
2021/06/19 05:05:02;;;;;;;10.77;7.57;;;21.60;99.90;;;;;;5033193;28;20260;-85
2021/06/19 05:07:28;;;;;;;11.73;6.97;;;21.60;99.90;;;;;;5002643;28;20168;-83
2021/06/19 05:09:54;;;;;;;10.63;6.67;;;21.60;99.90;;;;;;5032779;28;20252;-85
2021/06/19 05:12:20;;;;;;;11.50;6.63;;;21.50;99.90;;;;;;5021221;28;20185;-84
2021/06/19 05:14:45;;;;;;;10.40;6.60;;;21.40;99.90;;;;;;5017078;28;20212;-83
2021/06/19 05:17:11;;;;;;;12.33;6.37;;;21.40;99.90;;;;;;5014403;28;20197;-86
2021/06/19 05:19:37;;;;;;;9.90;6.40;;;21.40;99.90;;;;;;4993673;28;20200;-83
2021/06/19 05:22:03;;;;;;;10.93;6.23;;;21.40;99.90;;;;;;5007505;28;20177;-84
2021/06/19 05:24:29;;;;;;;11.50;6.53;;;21.30;99.90;;;;;;4989710;28;20235;-83
2021/06/19 05:26:55;;;;;;;12.27;6.67;;;21.30;99.90;;;;;;4989645;28;20197;-83
2021/06/19 05:29:21;;;;;;;13.40;6.63;;;21.30;99.90;;;;;;4989037;28;20276;-84
2021/06/19 05:31:47;;;;;;;10.53;6.50;;;21.40;99.90;;;;;;5005594;28;20189;-84
2021/06/19 05:34:12;;;;;;;12.40;6.80;;;21.30;99.90;;;;;;5010570;28;20606;-84
2021/06/19 05:36:38;;;;;;;11.07;6.90;;;21.40;99.90;;;;;;4990284;28;20239;-84
2021/06/19 05:39:05;;;;;;;8.77;5.23;;;21.50;99.90;;;;;;5008176;28;20652;-84
2021/06/19 05:41:31;;;;;;;9.20;4.70;;;21.60;99.90;;;;;;4990181;28;20563;-84
2021/06/19 05:43:57;;;;;;;7.47;4.30;;;21.60;99.90;;;;;;4989763;28;20198;-85
2021/06/19 05:46:24;;;;;;;9.77;4.87;;;21.70;99.90;;;;;;4991304;28;20189;-85
2021/06/19 05:48:56;;;;;;;11.57;4.93;;;21.60;99.90;;;;;;4992373;28;20267;-85
2021/06/19 05:51:22;;;;;;;8.47;5.23;;;21.60;99.90;;;;;;4994969;28;20185;-84
2021/06/19 05:53:48;;;;;;;9.57;5.93;;;21.60;99.90;;;;;;4989737;28;20322;-84
2021/06/19 05:56:14;;;;;;;10.07;5.87;;;21.70;99.90;;;;;;5005680;28;20181;-85
2021/06/19 05:58:40;;;;;;;11.50;5.40;;;21.70;99.90;;;;;;5011428;28;20215;-87
2021/06/19 06:01:05;;;;;;;9.83;5.63;;;21.70;99.90;;;;;;4999413;28;20184;-87
2021/06/19 06:03:31;;;;;;;9.43;5.40;;;21.70;99.90;;;;;;4996293;28;20189;-86
2021/06/19 06:05:57;;;;;;;8.77;5.33;;;21.80;99.90;;;;;;5012413;28;20769;-86
2021/06/19 06:08:23;;;;;;;10.47;5.53;;;21.90;99.90;;;;;;4985706;28;20240;-86
2021/06/19 06:10:48;;;;;;;8.67;5.67;;;21.80;99.90;;;;;;4999120;28;20360;-86
2021/06/19 06:13:14;;;;;;;10.60;5.53;;;21.90;99.90;;;;;;4986124;28;20178;-84
2021/06/19 06:15:40;;;;;;;11.60;6.03;;;22.00;99.90;;;;;;4982515;28;20225;-86
2021/06/19 06:18:05;;;;;;;9.87;5.93;;;22.10;99.90;;;;;;5001085;28;20203;-87
2021/06/19 06:20:31;;;;;;;9.00;5.10;;;22.10;99.90;;;;;;4986663;28;20177;-86
2021/06/19 06:22:58;;;;;;;9.33;5.60;;;22.10;99.90;;;;;;4998767;28;20212;-86
2021/06/19 06:25:23;;;;;;;8.27;4.60;;;22.00;99.90;;;;;;4973368;28;20644;-85
2021/06/19 06:27:49;;;;;;;10.00;5.67;;;21.90;99.90;;;;;;4982490;28;20188;-85
2021/06/19 06:30:15;;;;;;;10.20;5.20;;;22.00;99.90;;;;;;4999761;28;20244;-84
2021/06/19 06:32:41;;;;;;;10.67;5.77;;;22.10;99.90;;;;;;4983876;28;20272;-86
2021/06/19 06:35:09;;;;;;;9.63;6.13;;;22.30;99.90;;;;;;4979881;28;20233;-85
2021/06/19 06:37:36;;;;;;;10.90;6.20;;;22.40;99.90;;;;;;4996785;28;20252;-84
2021/06/19 06:40:03;;;;;;;11.00;6.33;;;22.50;99.90;;;;;;4982953;28;20186;-84
2021/06/19 06:42:29;;;;;;;11.30;6.23;;;22.50;99.90;;;;;;4976727;28;20185;-83
2021/06/19 06:44:55;;;;;;;10.67;6.03;;;22.50;99.90;;;;;;4997339;28;20698;-84
2021/06/19 06:47:20;;;;;;;10.33;6.30;;;22.60;99.90;;;;;;4981545;28;20251;-84
2021/06/19 06:49:46;;;;;;;12.83;6.37;;;22.60;99.90;;;;;;4979427;28;20213;-85
2021/06/19 06:52:12;;;;;;;10.10;6.10;;;22.70;99.90;;;;;;4997637;28;20628;-84
2021/06/19 06:54:40;;;;;;;9.13;5.83;;;22.80;99.90;;;;;;4996873;28;20213;-84
2021/06/19 06:57:09;;;;;;;11.93;7.00;;;22.90;99.90;;;;;;4996423;28;20178;-83
2021/06/19 06:59:36;;;;;;;10.80;7.10;;;22.90;99.90;;;;;;4998455;28;20652;-84
2021/06/19 07:02:04;;;;;;;10.33;6.77;;;22.80;99.90;;;;;;4994792;28;20188;-84
2021/06/19 07:04:29;;;;;;;12.90;6.80;;;22.70;99.90;;;;;;4997014;28;20286;-83
2021/06/19 07:06:55;;;;;;;12.10;6.23;;;22.80;99.90;;;;;;4980000;28;20268;-83
2021/06/19 07:09:21;;;;;;;12.13;6.80;;;23.00;99.90;;;;;;4997667;28;20204;-83
2021/06/19 07:11:46;;;;;;;10.77;6.97;;;23.20;99.90;;;;;;4997290;28;20178;-84
2021/06/19 07:14:12;;;;;;;10.43;7.60;;;23.40;99.90;;;;;;4980298;28;20183;-83
2021/06/19 07:16:38;;;;;;;10.33;6.63;;;23.70;99.90;;;;;;4980863;28;20194;-83
2021/06/19 07:19:04;;;;;;;10.70;6.93;;;23.90;99.90;;;;;;4996786;28;20194;-83
2021/06/19 07:21:30;;;;;;;11.17;6.73;;;23.90;99.90;;;;;;4981222;28;20186;-84
2021/06/19 07:23:56;;;;;;;10.20;6.40;;;23.90;99.90;;;;;;4984412;28;20263;-83
2021/06/19 07:26:22;;;;;;;10.47;6.77;;;24.00;99.90;;;;;;4998329;28;20196;-83
2021/06/19 07:28:48;;;;;;;11.10;6.97;;;23.90;99.90;;;;;;4979960;28;20206;-84
2021/06/19 07:31:14;;;;;;;10.53;6.67;;;23.70;99.90;;;;;;4994012;28;20244;-84
2021/06/19 07:33:41;;;;;;;10.83;6.03;;;23.80;99.90;;;;;;4980918;28;20276;-85
2021/06/19 07:36:07;;;;;;;10.50;5.93;;;23.90;99.90;;;;;;4980470;28;20563;-85
2021/06/19 07:38:33;;;;;;;10.17;5.83;;;23.40;99.90;;;;;;4994721;28;20196;-85
2021/06/19 07:40:59;;;;;;;12.23;5.63;;;23.50;99.90;;;;;;4996895;28;20213;-84
2021/06/19 07:43:25;;;;;;;9.77;5.90;;;23.80;99.90;;;;;;4981435;28;20186;-84
2021/06/19 07:45:52;;;;;;;10.90;5.83;;;24.10;99.90;;;;;;4996279;28;20196;-83
2021/06/19 07:48:17;;;;;;;9.33;5.70;;;24.10;99.90;;;;;;4997744;28;20189;-84
2021/06/19 07:50:44;;;;;;;10.53;5.57;;;24.10;99.90;;;;;;4980223;28;20185;-84
2021/06/19 07:53:10;;;;;;;8.73;5.60;;;23.90;99.90;;;;;;4997760;28;20610;-84
2021/06/19 07:55:36;;;;;;;9.87;5.30;;;23.70;99.90;;;;;;4979883;28;20224;-85
2021/06/19 07:58:02;;;;;;;11.30;5.17;;;23.60;99.90;;;;;;4979773;28;20235;-84
2021/06/19 08:00:29;;;;;;;8.43;5.20;;;23.50;99.90;;;;;;4978996;28;20178;-83
2021/06/19 08:02:59;;;;;;;8.80;5.30;;;23.70;99.90;;;;;;4993965;28;20201;-84
2021/06/19 08:05:25;;;;;;;10.13;6.00;;;23.50;99.90;;;;;;4978810;28;20193;-84
2021/06/19 08:07:51;;;;;;;10.50;6.30;;;23.20;99.90;;;;;;4979454;28;20190;-86
2021/06/19 08:10:17;;;;;;;9.07;5.47;;;22.90;99.90;;;;;;4980119;28;20205;-85
2021/06/19 08:12:43;;;;;;;10.47;5.00;;;23.00;99.90;;;;;;4978503;28;20191;-83
2021/06/19 08:15:10;;;;;;;7.70;3.87;;;23.00;99.90;;;;;;4982918;28;20256;-84
2021/06/19 08:17:36;;;;;;;6.17;3.43;;;22.60;99.90;;;;;;5014865;28;20186;-84
2021/06/19 08:20:04;;;;;;;6.97;3.53;;;22.30;99.90;;;;;;4995501;28;20257;-85
2021/06/19 08:22:30;;;;;;;6.97;2.87;;;22.50;99.90;;;;;;4997848;28;20174;-84
2021/06/19 08:24:56;;;;;;;9.13;3.67;;;23.00;99.90;;;;;;4979335;28;20190;-84
2021/06/19 08:27:25;;;;;;;8.00;3.37;;;23.10;99.90;;;;;;4977123;28;20229;-83
2021/06/19 08:29:54;;;;;;;6.73;3.30;;;23.00;99.90;;;;;;4996082;28;20281;-84
2021/06/19 08:32:21;;;;;;;7.27;2.83;;;23.20;99.90;;;;;;5010394;28;20560;-83
2021/06/19 08:34:47;;;;;;;7.53;3.10;;;23.20;99.90;;;;;;4981071;28;20177;-85
2021/06/19 08:37:13;;;;;;;4.07;2.40;;;23.30;99.90;;;;;;4979564;28;20221;-83
2021/06/19 08:39:39;;;;;;;5.17;2.47;;;23.20;99.90;;;;;;4994390;28;20193;-85
2021/06/19 08:42:05;;;;;;;3.67;2.17;;;23.50;99.90;;;;;;4994671;28;20242;-83
2021/06/19 08:44:31;;;;;;;4.90;2.27;;;23.60;99.90;;;;;;4996669;28;20190;-84
2021/06/19 08:46:58;;;;;;;4.03;2.20;;;23.70;99.90;;;;;;4981565;28;20608;-85
2021/06/19 08:49:26;;;;;;;3.67;2.20;;;24.00;99.90;;;;;;4996337;28;20567;-85
2021/06/19 08:51:56;;;;;;;5.20;2.10;;;24.00;99.90;;;;;;4994327;28;20182;-85
2021/06/19 08:54:24;;;;;;;5.03;2.13;;;23.90;99.90;;;;;;4994748;28;20181;-83
2021/06/19 08:56:51;;;;;;;4.83;2.33;;;24.10;99.90;;;;;;4986799;28;20261;-84
2021/06/19 08:59:17;;;;;;;3.50;2.00;;;24.00;99.90;;;;;;4992703;28;20324;-84
2021/06/19 09:01:43;;;;;;;4.67;2.50;;;24.00;99.90;;;;;;4994590;28;20260;-88
2021/06/19 09:04:11;;;;;;;5.10;2.40;;;23.70;99.90;;;;;;5010128;28;20193;-84
2021/06/19 09:06:38;;;;;;;4.93;2.60;;;23.50;99.90;;;;;;4978840;28;20571;-84
2021/06/19 09:09:15;;;;;;;5.60;2.57;;;23.50;99.90;;;;;;4977611;28;20510;-84
2021/06/19 09:11:43;;;;;;;6.40;2.63;;;23.70;99.90;;;;;;4993634;28;20178;-84
2021/06/19 09:14:12;;;;;;;4.07;2.40;;;23.70;99.90;;;;;;4962573;28;20252;-84
2021/06/19 09:16:40;;;;;;;5.87;2.93;;;24.00;99.90;;;;;;4991103;28;20197;-84
2021/06/19 09:19:26;;;;;;;9.57;3.33;;;24.20;99.90;;;;;;4983048;28;20515;-84
2021/06/19 09:22:31;;;;;;;11.87;4.73;;;24.00;99.90;;;;;;5007386;28;20189;-84
2021/06/19 09:24:58;;;;;;;8.77;3.40;;;24.00;99.90;;;;;;4935973;29;20192;-85
2021/06/19 09:27:39;;;;;;;5.93;3.10;;;24.00;99.90;;;;;;4916428;29;20307;-84
2021/06/19 09:30:23;;;;;;;6.10;3.13;;;23.90;99.90;;;;;;4964962;28;20319;-85
2021/06/19 09:32:53;;;;;;;6.30;3.23;;;24.20;99.90;;;;;;5009349;28;20190;-85
2021/06/19 09:35:29;;;;;;;6.40;2.97;;;24.60;99.90;;;;;;4975485;28;20236;-83
2021/06/19 09:38:03;;;;;;;5.30;3.10;;;24.50;99.90;;;;;;4978102;28;20657;-85
2021/06/19 09:40:37;;;;;;;7.80;3.33;;;24.50;99.90;;;;;;4976513;28;20185;-85
2021/06/19 09:43:07;;;;;;;6.50;3.50;;;24.50;99.90;;;;;;4987254;28;20273;-84
2021/06/19 09:45:33;;;;;;;6.70;3.50;;;24.50;99.90;;;;;;4992207;28;20190;-84
2021/06/19 09:47:59;;;;;;;10.23;5.20;;;24.60;99.90;;;;;;4994486;28;20253;-83
2021/06/19 09:50:25;;;;;;;9.77;5.67;;;24.40;99.90;;;;;;4992864;28;20222;-84
2021/06/19 09:52:52;;;;;;;12.13;5.90;;;24.40;99.90;;;;;;4981296;28;20180;-84
2021/06/19 09:55:18;;;;;;;10.93;6.00;;;24.40;99.90;;;;;;4978154;28;20186;-86
2021/06/19 09:57:44;;;;;;;13.67;6.63;;;24.40;99.90;;;;;;4977784;28;20174;-86
2021/06/19 10:00:17;;;;;;;12.43;6.87;;;24.40;99.90;;;;;;4994217;28;20269;-86
2021/06/19 10:02:45;;;;;;;11.63;6.37;;;24.60;99.90;;;;;;4978518;28;20548;-87
2021/06/19 10:05:11;;;;;;;10.73;5.63;;;24.40;99.90;;;;;;4976704;28;20190;-85
2021/06/19 10:07:37;;;;;;;12.87;6.73;;;24.40;99.90;;;;;;4992702;28;20217;-87
2021/06/19 10:10:08;;;;;;;13.87;7.37;;;24.40;99.90;;;;;;4996016;28;20669;-86
2021/06/19 10:12:35;;;;;;;11.03;7.50;;;24.50;99.90;;;;;;4975699;28;20332;-87
2021/06/19 10:15:08;;;;;;;11.30;7.07;;;24.40;99.90;;;;;;4995549;28;20201;-86
2021/06/19 10:17:39;;;;;;;14.10;7.97;;;24.50;99.90;;;;;;4977812;28;20597;-84
2021/06/19 10:20:08;;;;;;;12.63;8.43;;;24.50;99.90;;;;;;5007408;28;20186;-86
2021/06/19 10:22:36;;;;;;;12.00;7.87;;;24.40;99.90;;;;;;4986665;28;20660;-84
2021/06/19 10:25:08;;;;;;;15.17;8.13;;;24.50;99.90;;;;;;4978501;28;20264;-87
2021/06/19 10:27:37;;;;;;;11.37;7.80;;;24.40;99.90;;;;;;4979208;28;20542;-84
2021/06/19 10:30:04;;;;;;;12.37;7.83;;;24.40;99.90;;;;;;4978999;28;20220;-88
2021/06/19 10:32:40;;;;;;;12.00;7.93;;;24.30;99.90;;;;;;4997790;28;20174;-89
2021/06/19 10:35:07;;;;;;;13.63;7.63;;;24.20;99.90;;;;;;4993185;28;20197;-88
2021/06/19 10:37:32;;;;;;;11.70;8.00;;;24.20;99.90;;;;;;4995683;28;20224;-86
2021/06/19 10:40:24;;;;;;;14.23;8.47;;;24.40;99.90;;;;;;4979310;28;20280;-87
2021/06/19 10:42:53;;;;;;;11.37;7.40;;;24.50;99.90;;;;;;4992131;28;20186;-86
2021/06/19 10:45:22;;;;;;;11.67;8.23;;;24.60;99.90;;;;;;4977878;28;20276;-86
2021/06/19 10:48:09;;;;;;;12.63;8.67;;;24.90;99.90;;;;;;5000490;28;20189;-87
2021/06/19 10:50:37;;;;;;;12.93;7.90;;;25.20;99.90;;;;;;4981852;28;20742;-87
2021/06/19 10:53:05;;;;;;;12.63;8.03;;;25.20;99.90;;;;;;4980308;28;20178;-86
2021/06/19 10:55:33;;;;;;;11.10;7.83;;;25.30;99.90;;;;;;4981210;28;20182;-87
2021/06/19 10:58:27;;;;;;;11.33;7.00;;;25.40;99.90;;;;;;4976772;28;20182;-88
2021/06/19 11:00:57;;;;;;;10.97;6.87;;;25.70;99.90;;;;;;4987022;28;20641;-87
2021/06/19 11:03:49;;;;;;;15.77;7.20;;;25.90;99.90;;;;;;4974691;28;20193;-85
2021/06/19 11:06:28;;;;;;;15.32;8.55;;;26.00;99.90;;;;;;4973429;28;20333;-85
2021/06/19 11:08:57;;;;;;;11.15;7.75;;;26.20;99.90;;;;;;4994174;28;20293;-85
2021/06/19 11:12:02;;;;;;;14.80;7.43;;;26.20;99.90;;;;;;4982153;28;20284;-87
2021/06/19 11:14:46;;;;;;;12.05;7.40;;;26.60;99.90;;;;;;4985328;28;20185;-89
2021/06/19 11:17:21;;;;;;;12.10;6.90;;;27.60;99.90;;;;;;4982185;28;20185;-86
2021/06/19 11:20:05;;;;;;;9.48;6.38;;;28.40;99.90;;;;;;4980867;28;20557;-87
2021/06/19 11:22:39;;;;;;;10.88;7.03;;;29.50;99.90;;;;;;4994381;28;20328;-86
2021/06/19 11:28:22;;;;;;;10.20;7.25;;;30.00;99.90;;;;;;4984417;28;20210;-85
2021/06/19 11:30:59;;;;;;;8.57;6.07;;;29.80;99.90;;;;;;4992662;28;20220;-85
2021/06/19 11:33:31;;;;;;;10.88;7.88;;;28.90;99.90;;;;;;5008347;28;20189;-86
2021/06/19 11:36:00;;;;;;;10.05;7.53;;;27.90;99.90;;;;;;4979173;28;20742;-84
2021/06/19 11:38:55;;;;;;;10.80;7.03;;;27.40;99.90;;;;;;4975966;28;20185;-86
2021/06/19 11:41:29;;;;;;;12.50;7.40;;;27.00;99.90;;;;;;4990296;28;20210;-86
2021/06/19 11:43:55;;;;;;;9.48;6.47;;;26.50;99.90;;;;;;4967022;28;20221;-85
2021/06/19 11:46:24;;;;;;;10.10;7.50;;;26.40;99.90;;;;;;4995193;28;20209;-85
2021/06/19 11:48:52;;;;;;;11.80;8.05;;;26.10;99.90;;;;;;4996052;28;20232;-84
2021/06/19 11:51:24;;;;;;;10.10;7.68;;;25.70;99.90;;;;;;4976810;28;20640;-85
2021/06/19 11:53:50;;;;;;;11.23;7.32;;;25.60;99.90;;;;;;4995054;28;20186;-84
2021/06/19 11:56:17;;;;;;;11.55;7.60;;;25.20;99.90;;;;;;4978451;28;20190;-84
2021/06/19 11:58:54;;;;;;;11.37;6.73;;;25.10;99.90;;;;;;4992448;28;20217;-86
2021/06/19 12:01:21;;;;;;;12.47;7.63;;;25.20;99.90;;;;;;4978245;28;20229;-86
2021/06/19 12:03:49;;;;;;;11.32;7.55;;;25.60;99.90;;;;;;4978248;28;20198;-86
2021/06/19 12:06:15;;;;;;;11.07;7.23;;;25.60;99.90;;;;;;4992798;28;20651;-83
2021/06/19 12:08:42;;;;;;;12.77;8.15;;;25.80;99.90;;;;;;4987311;28;20577;-84
2021/06/19 12:11:08;;;;;;;13.20;8.10;;;25.70;99.90;;;;;;4976849;28;20280;-84
2021/06/19 12:13:42;;;;;;;14.55;8.38;;;25.60;99.90;;;;;;4980810;28;20213;-85
2021/06/19 12:16:09;;;;;;;11.45;8.30;;;25.60;99.90;;;;;;4977728;28;20194;-85
2021/06/19 12:18:36;;;;;;;12.50;8.80;;;25.90;99.90;;;;;;4994295;28;20201;-84
2021/06/19 12:21:07;;;;;;;12.07;7.67;;;25.80;99.90;;;;;;4997651;28;20538;-84
2021/06/19 12:23:41;;;;;;;15.20;9.03;;;25.80;99.90;;;;;;4994226;28;20181;-86
2021/06/19 12:26:09;;;;;;;11.03;7.97;;;25.40;99.90;;;;;;4979125;28;20193;-84
2021/06/19 12:28:36;;;;;;;14.40;9.63;;;25.20;99.90;;;;;;4976542;28;20183;-86
2021/06/19 12:31:04;;;;;;;14.30;8.90;;;25.30;99.90;;;;;;4993404;28;20192;-84
2021/06/19 12:33:32;;;;;;;13.77;8.90;;;25.30;99.90;;;;;;4970465;28;20186;-86
2021/06/19 12:36:00;;;;;;;14.23;8.47;;;25.40;99.90;;;;;;4980606;28;20263;-88
2021/06/19 12:38:28;;;;;;;13.23;8.93;;;25.70;99.90;;;;;;4998656;28;20276;-86
2021/06/19 12:40:55;;;;;;;14.93;9.80;;;25.90;99.90;;;;;;4993315;28;20566;-87
2021/06/19 12:43:22;;;;;;;14.85;9.68;;;25.80;99.90;;;;;;4980341;28;20205;-87
2021/06/19 12:45:49;;;;;;;15.17;9.07;;;25.90;99.90;;;;;;4978890;28;20182;-87
2021/06/19 12:48:37;;;;;;;13.80;8.73;;;26.20;99.90;;;;;;4997208;28;20196;-86
2021/06/19 12:51:05;;;;;;;12.73;9.07;;;26.20;99.90;;;;;;4967600;28;20213;-87